sensor_id;sensor_type;location;lat;lon;timestamp;P1;durP1;ratioP1;P2;durP2;ratioP2
30539;SDS011;17321;46.312;4.776;2023-03-01T00:00:22;21.63;;;15.45;;
30539;SDS011;17321;46.312;4.776;2023-03-01T00:02:48;24.25;;;17.10;;
30539;SDS011;17321;46.312;4.776;2023-03-01T00:05:14;28.08;;;16.50;;
30539;SDS011;17321;46.312;4.776;2023-03-01T00:07:40;21.95;;;15.93;;
30539;SDS011;17321;46.312;4.776;2023-03-01T00:10:06;23.15;;;17.08;;
30539;SDS011;17321;46.312;4.776;2023-03-01T00:12:33;25.30;;;16.67;;
30539;SDS011;17321;46.312;4.776;2023-03-01T00:14:59;27.58;;;16.85;;
30539;SDS011;17321;46.312;4.776;2023-03-01T00:17:25;26.23;;;17.63;;
30539;SDS011;17321;46.312;4.776;2023-03-01T00:19:51;27.80;;;18.15;;
30539;SDS011;17321;46.312;4.776;2023-03-01T00:22:17;23.10;;;16.60;;
30539;SDS011;17321;46.312;4.776;2023-03-01T00:24:43;24.55;;;16.40;;
30539;SDS011;17321;46.312;4.776;2023-03-01T00:27:09;30.63;;;17.45;;
30539;SDS011;17321;46.312;4.776;2023-03-01T00:29:36;26.67;;;16.98;;
30539;SDS011;17321;46.312;4.776;2023-03-01T00:32:02;22.75;;;16.63;;
30539;SDS011;17321;46.312;4.776;2023-03-01T00:34:28;27.23;;;18.00;;
30539;SDS011;17321;46.312;4.776;2023-03-01T00:36:54;24.80;;;16.70;;
30539;SDS011;17321;46.312;4.776;2023-03-01T00:39:20;22.00;;;16.33;;
30539;SDS011;17321;46.312;4.776;2023-03-01T00:41:46;22.70;;;16.50;;
30539;SDS011;17321;46.312;4.776;2023-03-01T00:44:12;25.23;;;16.95;;
30539;SDS011;17321;46.312;4.776;2023-03-01T00:46:38;25.88;;;17.08;;
30539;SDS011;17321;46.312;4.776;2023-03-01T00:49:04;26.92;;;16.33;;
30539;SDS011;17321;46.312;4.776;2023-03-01T00:51:31;23.75;;;16.85;;
30539;SDS011;17321;46.312;4.776;2023-03-01T00:53:58;24.52;;;17.08;;
30539;SDS011;17321;46.312;4.776;2023-03-01T00:56:25;25.08;;;16.75;;
30539;SDS011;17321;46.312;4.776;2023-03-01T00:58:51;24.13;;;16.27;;
30539;SDS011;17321;46.312;4.776;2023-03-01T01:01:21;23.20;;;16.48;;
30539;SDS011;17321;46.312;4.776;2023-03-01T01:03:49;29.27;;;17.02;;
30539;SDS011;17321;46.312;4.776;2023-03-01T01:06:16;46.85;;;25.42;;
30539;SDS011;17321;46.312;4.776;2023-03-01T01:08:42;33.92;;;20.40;;
30539;SDS011;17321;46.312;4.776;2023-03-01T01:11:11;28.30;;;18.92;;
30539;SDS011;17321;46.312;4.776;2023-03-01T01:13:38;25.45;;;16.08;;
30539;SDS011;17321;46.312;4.776;2023-03-01T01:16:04;25.55;;;17.63;;
30539;SDS011;17321;46.312;4.776;2023-03-01T01:18:30;27.85;;;18.20;;
30539;SDS011;17321;46.312;4.776;2023-03-01T01:20:56;26.02;;;18.35;;
30539;SDS011;17321;46.312;4.776;2023-03-01T01:23:22;28.08;;;18.65;;
30539;SDS011;17321;46.312;4.776;2023-03-01T01:25:48;27.88;;;17.67;;
30539;SDS011;17321;46.312;4.776;2023-03-01T01:28:15;26.05;;;18.42;;
30539;SDS011;17321;46.312;4.776;2023-03-01T01:30:42;27.02;;;16.38;;
30539;SDS011;17321;46.312;4.776;2023-03-01T01:33:08;21.38;;;15.73;;
30539;SDS011;17321;46.312;4.776;2023-03-01T01:35:34;27.70;;;18.77;;
30539;SDS011;17321;46.312;4.776;2023-03-01T01:38:00;25.48;;;16.92;;
30539;SDS011;17321;46.312;4.776;2023-03-01T01:40:26;24.20;;;16.10;;
30539;SDS011;17321;46.312;4.776;2023-03-01T01:42:52;26.05;;;17.77;;
30539;SDS011;17321;46.312;4.776;2023-03-01T01:47:50;24.00;;;17.42;;
30539;SDS011;17321;46.312;4.776;2023-03-01T01:50:17;22.58;;;17.15;;
30539;SDS011;17321;46.312;4.776;2023-03-01T01:52:44;27.30;;;18.17;;
30539;SDS011;17321;46.312;4.776;2023-03-01T01:55:12;26.92;;;18.63;;
30539;SDS011;17321;46.312;4.776;2023-03-01T01:57:40;25.70;;;17.55;;
30539;SDS011;17321;46.312;4.776;2023-03-01T02:00:10;22.40;;;16.70;;
30539;SDS011;17321;46.312;4.776;2023-03-01T02:02:37;28.95;;;17.92;;
30539;SDS011;17321;46.312;4.776;2023-03-01T02:07:45;26.17;;;17.95;;
30539;SDS011;17321;46.312;4.776;2023-03-01T02:10:13;25.15;;;18.27;;
30539;SDS011;17321;46.312;4.776;2023-03-01T02:12:39;29.20;;;17.42;;
30539;SDS011;17321;46.312;4.776;2023-03-01T02:15:05;25.48;;;18.35;;
30539;SDS011;17321;46.312;4.776;2023-03-01T02:17:31;27.42;;;19.02;;
30539;SDS011;17321;46.312;4.776;2023-03-01T02:22:28;29.38;;;19.02;;
30539;SDS011;17321;46.312;4.776;2023-03-01T02:27:22;24.67;;;17.77;;
30539;SDS011;17321;46.312;4.776;2023-03-01T02:29:51;27.90;;;18.55;;
30539;SDS011;17321;46.312;4.776;2023-03-01T02:32:17;28.20;;;18.48;;
30539;SDS011;17321;46.312;4.776;2023-03-01T02:34:51;25.00;;;18.23;;
30539;SDS011;17321;46.312;4.776;2023-03-01T02:37:17;24.98;;;17.80;;
30539;SDS011;17321;46.312;4.776;2023-03-01T02:39:50;27.20;;;18.52;;
30539;SDS011;17321;46.312;4.776;2023-03-01T02:42:21;29.23;;;19.80;;
30539;SDS011;17321;46.312;4.776;2023-03-01T02:44:49;28.83;;;19.13;;
30539;SDS011;17321;46.312;4.776;2023-03-01T02:47:15;32.92;;;19.00;;
30539;SDS011;17321;46.312;4.776;2023-03-01T02:49:41;27.00;;;18.63;;
30539;SDS011;17321;46.312;4.776;2023-03-01T02:55:02;32.53;;;22.33;;
30539;SDS011;17321;46.312;4.776;2023-03-01T02:57:26;28.40;;;19.73;;
30539;SDS011;17321;46.312;4.776;2023-03-01T02:59:54;31.83;;;19.98;;
30539;SDS011;17321;46.312;4.776;2023-03-01T03:02:21;27.92;;;20.08;;
30539;SDS011;17321;46.312;4.776;2023-03-01T03:05:09;26.60;;;18.33;;
30539;SDS011;17321;46.312;4.776;2023-03-01T03:07:36;30.77;;;20.60;;
30539;SDS011;17321;46.312;4.776;2023-03-01T03:10:04;30.60;;;20.38;;
30539;SDS011;17321;46.312;4.776;2023-03-01T03:12:30;29.88;;;20.25;;
30539;SDS011;17321;46.312;4.776;2023-03-01T03:14:56;26.80;;;19.00;;
30539;SDS011;17321;46.312;4.776;2023-03-01T03:17:23;33.03;;;21.10;;
30539;SDS011;17321;46.312;4.776;2023-03-01T03:19:49;28.80;;;19.00;;
30539;SDS011;17321;46.312;4.776;2023-03-01T03:22:15;30.50;;;19.17;;
30539;SDS011;17321;46.312;4.776;2023-03-01T03:24:41;31.17;;;20.58;;
30539;SDS011;17321;46.312;4.776;2023-03-01T03:27:07;32.30;;;20.88;;
30539;SDS011;17321;46.312;4.776;2023-03-01T03:29:33;30.55;;;20.70;;
30539;SDS011;17321;46.312;4.776;2023-03-01T03:31:59;32.38;;;21.65;;
30539;SDS011;17321;46.312;4.776;2023-03-01T03:34:25;31.63;;;21.13;;
30539;SDS011;17321;46.312;4.776;2023-03-01T03:36:55;30.25;;;19.63;;
30539;SDS011;17321;46.312;4.776;2023-03-01T03:39:27;32.03;;;21.15;;
30539;SDS011;17321;46.312;4.776;2023-03-01T03:41:54;35.10;;;20.00;;
30539;SDS011;17321;46.312;4.776;2023-03-01T03:44:20;32.50;;;20.30;;
30539;SDS011;17321;46.312;4.776;2023-03-01T03:46:46;31.48;;;20.42;;
30539;SDS011;17321;46.312;4.776;2023-03-01T03:49:12;32.80;;;20.55;;
30539;SDS011;17321;46.312;4.776;2023-03-01T03:51:38;32.65;;;20.88;;
30539;SDS011;17321;46.312;4.776;2023-03-01T03:54:05;30.83;;;20.60;;
30539;SDS011;17321;46.312;4.776;2023-03-01T03:56:31;35.40;;;21.48;;
30539;SDS011;17321;46.312;4.776;2023-03-01T03:58:57;29.90;;;20.10;;
30539;SDS011;17321;46.312;4.776;2023-03-01T04:01:23;30.25;;;20.83;;
30539;SDS011;17321;46.312;4.776;2023-03-01T04:03:49;35.65;;;22.20;;
30539;SDS011;17321;46.312;4.776;2023-03-01T04:06:19;30.95;;;20.77;;
30539;SDS011;17321;46.312;4.776;2023-03-01T04:08:45;28.85;;;19.67;;
30539;SDS011;17321;46.312;4.776;2023-03-01T04:11:11;32.92;;;20.90;;
30539;SDS011;17321;46.312;4.776;2023-03-01T04:13:54;32.17;;;21.35;;
30539;SDS011;17321;46.312;4.776;2023-03-01T04:16:21;32.33;;;21.88;;
30539;SDS011;17321;46.312;4.776;2023-03-01T04:18:47;29.65;;;19.88;;
30539;SDS011;17321;46.312;4.776;2023-03-01T04:21:13;32.20;;;21.33;;
30539;SDS011;17321;46.312;4.776;2023-03-01T04:23:39;32.20;;;22.17;;
30539;SDS011;17321;46.312;4.776;2023-03-01T04:26:06;32.72;;;21.45;;
30539;SDS011;17321;46.312;4.776;2023-03-01T04:28:36;33.63;;;21.50;;
30539;SDS011;17321;46.312;4.776;2023-03-01T04:31:04;34.88;;;20.10;;
30539;SDS011;17321;46.312;4.776;2023-03-01T04:33:48;32.13;;;21.17;;
30539;SDS011;17321;46.312;4.776;2023-03-01T04:36:19;31.98;;;21.17;;
30539;SDS011;17321;46.312;4.776;2023-03-01T04:38:45;33.10;;;21.77;;
30539;SDS011;17321;46.312;4.776;2023-03-01T04:41:18;33.70;;;22.00;;
30539;SDS011;17321;46.312;4.776;2023-03-01T04:43:44;36.28;;;21.92;;
30539;SDS011;17321;46.312;4.776;2023-03-01T04:46:11;30.98;;;21.00;;
30539;SDS011;17321;46.312;4.776;2023-03-01T04:48:38;35.75;;;22.98;;
30539;SDS011;17321;46.312;4.776;2023-03-01T04:51:05;34.05;;;22.48;;
30539;SDS011;17321;46.312;4.776;2023-03-01T04:53:31;35.28;;;23.50;;
30539;SDS011;17321;46.312;4.776;2023-03-01T04:55:58;38.10;;;22.83;;
30539;SDS011;17321;46.312;4.776;2023-03-01T04:58:25;31.75;;;22.23;;
30539;SDS011;17321;46.312;4.776;2023-03-01T05:00:52;38.55;;;23.27;;
30539;SDS011;17321;46.312;4.776;2023-03-01T05:03:19;36.50;;;22.42;;
30539;SDS011;17321;46.312;4.776;2023-03-01T05:05:46;35.90;;;23.65;;
30539;SDS011;17321;46.312;4.776;2023-03-01T05:08:12;38.20;;;23.60;;
30539;SDS011;17321;46.312;4.776;2023-03-01T05:10:46;37.40;;;23.90;;
30539;SDS011;17321;46.312;4.776;2023-03-01T05:13:13;36.53;;;24.08;;
30539;SDS011;17321;46.312;4.776;2023-03-01T05:15:45;36.75;;;24.23;;
30539;SDS011;17321;46.312;4.776;2023-03-01T05:18:12;39.92;;;25.17;;
30539;SDS011;17321;46.312;4.776;2023-03-01T05:20:39;41.53;;;24.58;;
30539;SDS011;17321;46.312;4.776;2023-03-01T05:23:05;35.28;;;23.20;;
30539;SDS011;17321;46.312;4.776;2023-03-01T05:25:32;38.92;;;23.30;;
30539;SDS011;17321;46.312;4.776;2023-03-01T05:27:59;45.08;;;24.63;;
30539;SDS011;17321;46.312;4.776;2023-03-01T05:30:29;37.92;;;24.15;;
30539;SDS011;17321;46.312;4.776;2023-03-01T05:32:55;37.72;;;22.92;;
30539;SDS011;17321;46.312;4.776;2023-03-01T05:35:22;36.00;;;23.45;;
30539;SDS011;17321;46.312;4.776;2023-03-01T05:37:49;46.17;;;26.20;;
30539;SDS011;17321;46.312;4.776;2023-03-01T05:40:17;42.50;;;26.23;;
30539;SDS011;17321;46.312;4.776;2023-03-01T05:42:47;38.55;;;25.70;;
30539;SDS011;17321;46.312;4.776;2023-03-01T05:45:14;37.58;;;23.85;;
30539;SDS011;17321;46.312;4.776;2023-03-01T05:47:41;38.40;;;25.02;;
30539;SDS011;17321;46.312;4.776;2023-03-01T05:50:12;38.50;;;23.80;;
30539;SDS011;17321;46.312;4.776;2023-03-01T05:52:39;45.63;;;27.75;;
30539;SDS011;17321;46.312;4.776;2023-03-01T05:55:05;36.45;;;23.67;;
30539;SDS011;17321;46.312;4.776;2023-03-01T05:57:31;32.20;;;23.20;;
30539;SDS011;17321;46.312;4.776;2023-03-01T05:59:58;45.63;;;27.25;;
30539;SDS011;17321;46.312;4.776;2023-03-01T06:02:24;41.20;;;26.65;;
30539;SDS011;17321;46.312;4.776;2023-03-01T06:04:50;37.80;;;25.27;;
30539;SDS011;17321;46.312;4.776;2023-03-01T06:07:16;40.53;;;26.65;;
30539;SDS011;17321;46.312;4.776;2023-03-01T06:09:42;43.42;;;26.05;;
30539;SDS011;17321;46.312;4.776;2023-03-01T06:12:09;40.58;;;26.38;;
30539;SDS011;17321;46.312;4.776;2023-03-01T06:14:35;40.63;;;25.92;;
30539;SDS011;17321;46.312;4.776;2023-03-01T06:17:01;40.60;;;25.55;;
30539;SDS011;17321;46.312;4.776;2023-03-01T06:19:27;42.40;;;25.38;;
30539;SDS011;17321;46.312;4.776;2023-03-01T06:21:53;43.42;;;26.88;;
30539;SDS011;17321;46.312;4.776;2023-03-01T06:24:19;43.30;;;25.90;;
30539;SDS011;17321;46.312;4.776;2023-03-01T06:26:45;40.83;;;25.00;;
30539;SDS011;17321;46.312;4.776;2023-03-01T06:29:11;38.85;;;26.42;;
30539;SDS011;17321;46.312;4.776;2023-03-01T06:31:38;38.75;;;26.83;;
30539;SDS011;17321;46.312;4.776;2023-03-01T06:34:04;40.10;;;26.48;;
30539;SDS011;17321;46.312;4.776;2023-03-01T06:36:30;51.95;;;28.90;;
30539;SDS011;17321;46.312;4.776;2023-03-01T06:38:56;41.95;;;27.70;;
30539;SDS011;17321;46.312;4.776;2023-03-01T06:41:23;40.60;;;26.50;;
30539;SDS011;17321;46.312;4.776;2023-03-01T06:43:49;42.33;;;26.88;;
30539;SDS011;17321;46.312;4.776;2023-03-01T06:46:15;48.22;;;28.38;;
30539;SDS011;17321;46.312;4.776;2023-03-01T06:48:42;39.67;;;26.50;;
30539;SDS011;17321;46.312;4.776;2023-03-01T06:51:08;45.65;;;27.67;;
30539;SDS011;17321;46.312;4.776;2023-03-01T06:53:34;42.03;;;27.67;;
30539;SDS011;17321;46.312;4.776;2023-03-01T06:56:00;47.42;;;26.38;;
30539;SDS011;17321;46.312;4.776;2023-03-01T06:58:27;44.83;;;26.90;;
30539;SDS011;17321;46.312;4.776;2023-03-01T07:00:53;42.70;;;27.15;;
30539;SDS011;17321;46.312;4.776;2023-03-01T07:03:19;42.85;;;26.80;;
30539;SDS011;17321;46.312;4.776;2023-03-01T07:05:47;46.85;;;28.90;;
30539;SDS011;17321;46.312;4.776;2023-03-01T07:08:14;44.80;;;28.98;;
30539;SDS011;17321;46.312;4.776;2023-03-01T07:10:40;43.88;;;27.10;;
30539;SDS011;17321;46.312;4.776;2023-03-01T07:13:07;42.22;;;26.98;;
30539;SDS011;17321;46.312;4.776;2023-03-01T07:15:33;40.88;;;27.38;;
30539;SDS011;17321;46.312;4.776;2023-03-01T07:18:00;40.78;;;28.45;;
30539;SDS011;17321;46.312;4.776;2023-03-01T07:20:26;44.83;;;28.65;;
30539;SDS011;17321;46.312;4.776;2023-03-01T07:22:52;40.38;;;26.52;;
30539;SDS011;17321;46.312;4.776;2023-03-01T07:25:19;83.32;;;46.80;;
30539;SDS011;17321;46.312;4.776;2023-03-01T07:27:48;51.70;;;30.73;;
30539;SDS011;17321;46.312;4.776;2023-03-01T07:30:15;42.15;;;28.45;;
30539;SDS011;17321;46.312;4.776;2023-03-01T07:32:41;55.30;;;32.40;;
30539;SDS011;17321;46.312;4.776;2023-03-01T07:35:07;115.28;;;63.90;;
30539;SDS011;17321;46.312;4.776;2023-03-01T07:37:33;112.25;;;72.65;;
30539;SDS011;17321;46.312;4.776;2023-03-01T07:39:59;57.58;;;37.67;;
30539;SDS011;17321;46.312;4.776;2023-03-01T07:42:26;43.70;;;28.60;;
30539;SDS011;17321;46.312;4.776;2023-03-01T07:44:52;44.92;;;27.58;;
30539;SDS011;17321;46.312;4.776;2023-03-01T07:47:18;43.17;;;28.10;;
30539;SDS011;17321;46.312;4.776;2023-03-01T07:49:44;51.47;;;28.90;;
30539;SDS011;17321;46.312;4.776;2023-03-01T07:52:10;40.63;;;27.30;;
30539;SDS011;17321;46.312;4.776;2023-03-01T07:54:37;43.22;;;27.00;;
30539;SDS011;17321;46.312;4.776;2023-03-01T07:57:03;39.17;;;25.85;;
30539;SDS011;17321;46.312;4.776;2023-03-01T07:59:29;42.08;;;27.20;;
30539;SDS011;17321;46.312;4.776;2023-03-01T08:01:56;45.65;;;27.52;;
30539;SDS011;17321;46.312;4.776;2023-03-01T08:04:23;39.53;;;25.25;;
30539;SDS011;17321;46.312;4.776;2023-03-01T08:06:52;41.78;;;25.65;;
30539;SDS011;17321;46.312;4.776;2023-03-01T08:09:18;36.80;;;24.77;;
30539;SDS011;17321;46.312;4.776;2023-03-01T08:11:44;35.75;;;24.80;;
30539;SDS011;17321;46.312;4.776;2023-03-01T08:14:10;36.30;;;24.85;;
30539;SDS011;17321;46.312;4.776;2023-03-01T08:16:37;50.20;;;26.52;;
30539;SDS011;17321;46.312;4.776;2023-03-01T08:19:03;44.20;;;26.77;;
30539;SDS011;17321;46.312;4.776;2023-03-01T08:21:30;40.67;;;24.23;;
30539;SDS011;17321;46.312;4.776;2023-03-01T08:23:56;37.78;;;24.10;;
30539;SDS011;17321;46.312;4.776;2023-03-01T08:26:22;39.65;;;24.67;;
30539;SDS011;17321;46.312;4.776;2023-03-01T08:28:49;40.15;;;26.85;;
30539;SDS011;17321;46.312;4.776;2023-03-01T08:31:19;38.10;;;26.95;;
30539;SDS011;17321;46.312;4.776;2023-03-01T08:33:46;40.40;;;26.00;;
30539;SDS011;17321;46.312;4.776;2023-03-01T08:36:20;41.13;;;26.38;;
30539;SDS011;17321;46.312;4.776;2023-03-01T08:38:46;39.30;;;26.20;;
30539;SDS011;17321;46.312;4.776;2023-03-01T08:41:13;43.45;;;26.55;;
30539;SDS011;17321;46.312;4.776;2023-03-01T08:43:39;37.08;;;26.20;;
30539;SDS011;17321;46.312;4.776;2023-03-01T08:46:05;36.03;;;24.50;;
30539;SDS011;17321;46.312;4.776;2023-03-01T08:48:31;35.78;;;25.23;;
30539;SDS011;17321;46.312;4.776;2023-03-01T08:51:06;43.42;;;25.83;;
30539;SDS011;17321;46.312;4.776;2023-03-01T08:53:33;36.97;;;24.88;;
30539;SDS011;17321;46.312;4.776;2023-03-01T08:56:00;39.85;;;25.88;;
30539;SDS011;17321;46.312;4.776;2023-03-01T08:58:29;36.75;;;25.13;;
30539;SDS011;17321;46.312;4.776;2023-03-01T09:00:56;38.28;;;25.35;;
30539;SDS011;17321;46.312;4.776;2023-03-01T09:03:23;39.30;;;25.02;;
30539;SDS011;17321;46.312;4.776;2023-03-01T09:05:49;37.22;;;24.67;;
30539;SDS011;17321;46.312;4.776;2023-03-01T09:08:16;44.88;;;25.65;;
30539;SDS011;17321;46.312;4.776;2023-03-01T09:10:42;35.88;;;24.63;;
30539;SDS011;17321;46.312;4.776;2023-03-01T09:13:09;37.47;;;25.77;;
30539;SDS011;17321;46.312;4.776;2023-03-01T09:15:38;42.85;;;25.35;;
30539;SDS011;17321;46.312;4.776;2023-03-01T09:18:05;43.85;;;26.40;;
30539;SDS011;17321;46.312;4.776;2023-03-01T09:20:31;37.22;;;25.98;;
30539;SDS011;17321;46.312;4.776;2023-03-01T09:22:58;38.05;;;25.33;;
30539;SDS011;17321;46.312;4.776;2023-03-01T09:25:24;41.08;;;26.48;;
30539;SDS011;17321;46.312;4.776;2023-03-01T09:27:51;40.88;;;25.45;;
30539;SDS011;17321;46.312;4.776;2023-03-01T09:30:17;37.63;;;24.88;;
30539;SDS011;17321;46.312;4.776;2023-03-01T09:32:43;36.60;;;25.77;;
30539;SDS011;17321;46.312;4.776;2023-03-01T09:35:10;36.63;;;25.75;;
30539;SDS011;17321;46.312;4.776;2023-03-01T09:37:37;36.13;;;24.85;;
30539;SDS011;17321;46.312;4.776;2023-03-01T09:40:05;38.10;;;25.58;;
30539;SDS011;17321;46.312;4.776;2023-03-01T09:42:32;36.40;;;24.40;;
30539;SDS011;17321;46.312;4.776;2023-03-01T09:45:02;37.40;;;24.92;;
30539;SDS011;17321;46.312;4.776;2023-03-01T09:47:30;36.03;;;25.52;;
30539;SDS011;17321;46.312;4.776;2023-03-01T09:52:34;34.85;;;24.13;;
30539;SDS011;17321;46.312;4.776;2023-03-01T09:55:08;31.65;;;24.20;;
30539;SDS011;17321;46.312;4.776;2023-03-01T09:57:36;40.33;;;23.50;;
30539;SDS011;17321;46.312;4.776;2023-03-01T10:00:11;34.28;;;22.52;;
30539;SDS011;17321;46.312;4.776;2023-03-01T10:02:47;38.58;;;24.40;;
30539;SDS011;17321;46.312;4.776;2023-03-01T10:12:44;35.65;;;24.15;;
30539;SDS011;17321;46.312;4.776;2023-03-01T10:15:12;35.28;;;20.98;;
30539;SDS011;17321;46.312;4.776;2023-03-01T10:17:50;33.78;;;24.25;;
30539;SDS011;17321;46.312;4.776;2023-03-01T10:20:22;37.35;;;25.90;;
30539;SDS011;17321;46.312;4.776;2023-03-01T10:22:49;35.03;;;24.67;;
30539;SDS011;17321;46.312;4.776;2023-03-01T10:28:05;39.00;;;25.70;;
30539;SDS011;17321;46.312;4.776;2023-03-01T10:30:36;35.00;;;23.55;;
30539;SDS011;17321;46.312;4.776;2023-03-01T10:33:20;37.97;;;24.95;;
30539;SDS011;17321;46.312;4.776;2023-03-01T10:35:47;38.87;;;25.20;;
30539;SDS011;17321;46.312;4.776;2023-03-01T10:38:14;38.60;;;24.42;;
30539;SDS011;17321;46.312;4.776;2023-03-01T10:40:51;33.05;;;22.88;;
30539;SDS011;17321;46.312;4.776;2023-03-01T10:43:17;43.13;;;25.40;;
30539;SDS011;17321;46.312;4.776;2023-03-01T10:45:44;32.85;;;23.73;;
30539;SDS011;17321;46.312;4.776;2023-03-01T10:48:12;34.30;;;24.10;;
30539;SDS011;17321;46.312;4.776;2023-03-01T10:50:39;36.07;;;24.37;;
30539;SDS011;17321;46.312;4.776;2023-03-01T10:53:22;33.22;;;23.67;;
30539;SDS011;17321;46.312;4.776;2023-03-01T10:56:01;33.60;;;23.83;;
30539;SDS011;17321;46.312;4.776;2023-03-01T10:58:28;33.88;;;23.80;;
30539;SDS011;17321;46.312;4.776;2023-03-01T11:00:58;37.03;;;27.85;;
30539;SDS011;17321;46.312;4.776;2023-03-01T11:03:29;33.97;;;24.98;;
30539;SDS011;17321;46.312;4.776;2023-03-01T11:06:01;36.42;;;25.52;;
30539;SDS011;17321;46.312;4.776;2023-03-01T11:11:10;36.83;;;24.10;;
30539;SDS011;17321;46.312;4.776;2023-03-01T11:13:46;32.80;;;24.27;;
30539;SDS011;17321;46.312;4.776;2023-03-01T11:16:14;37.40;;;25.35;;
30539;SDS011;17321;46.312;4.776;2023-03-01T11:18:40;37.55;;;25.80;;
30539;SDS011;17321;46.312;4.776;2023-03-01T11:21:06;34.63;;;23.45;;
30539;SDS011;17321;46.312;4.776;2023-03-01T11:23:33;35.83;;;24.85;;
30539;SDS011;17321;46.312;4.776;2023-03-01T11:26:02;31.90;;;23.67;;
30539;SDS011;17321;46.312;4.776;2023-03-01T11:28:30;40.55;;;26.33;;
30539;SDS011;17321;46.312;4.776;2023-03-01T11:30:58;37.03;;;24.38;;
30539;SDS011;17321;46.312;4.776;2023-03-01T11:33:33;35.80;;;22.83;;
30539;SDS011;17321;46.312;4.776;2023-03-01T11:38:45;59.47;;;34.83;;
30539;SDS011;17321;46.312;4.776;2023-03-01T11:41:15;36.95;;;24.80;;
30539;SDS011;17321;46.312;4.776;2023-03-01T11:46:26;37.97;;;24.85;;
30539;SDS011;17321;46.312;4.776;2023-03-01T11:51:46;37.78;;;24.60;;
30539;SDS011;17321;46.312;4.776;2023-03-01T11:54:24;34.85;;;24.98;;
30539;SDS011;17321;46.312;4.776;2023-03-01T11:56:57;34.53;;;24.80;;
30539;SDS011;17321;46.312;4.776;2023-03-01T12:04:49;31.90;;;23.48;;
30539;SDS011;17321;46.312;4.776;2023-03-01T12:14:47;30.90;;;23.38;;
30539;SDS011;17321;46.312;4.776;2023-03-01T12:25:24;34.08;;;23.50;;
30539;SDS011;17321;46.312;4.776;2023-03-01T12:31:04;34.65;;;24.73;;
30539;SDS011;17321;46.312;4.776;2023-03-01T12:43:08;33.50;;;24.75;;
30539;SDS011;17321;46.312;4.776;2023-03-01T12:50:41;33.97;;;23.55;;
30539;SDS011;17321;46.312;4.776;2023-03-01T12:53:17;34.70;;;23.65;;
30539;SDS011;17321;46.312;4.776;2023-03-01T12:55:45;34.28;;;25.10;;
30539;SDS011;17321;46.312;4.776;2023-03-01T13:03:48;33.55;;;23.25;;
30539;SDS011;17321;46.312;4.776;2023-03-01T13:06:25;39.28;;;26.88;;
30539;SDS011;17321;46.312;4.776;2023-03-01T13:09:00;36.95;;;25.70;;
30539;SDS011;17321;46.312;4.776;2023-03-01T13:11:32;36.60;;;25.80;;
30539;SDS011;17321;46.312;4.776;2023-03-01T13:16:44;30.95;;;22.88;;
30539;SDS011;17321;46.312;4.776;2023-03-01T13:21:46;37.28;;;24.27;;
30539;SDS011;17321;46.312;4.776;2023-03-01T13:24:26;35.40;;;24.15;;
30539;SDS011;17321;46.312;4.776;2023-03-01T13:29:25;33.90;;;25.45;;
30539;SDS011;17321;46.312;4.776;2023-03-01T13:37:08;33.22;;;23.65;;
30539;SDS011;17321;46.312;4.776;2023-03-01T13:39:39;33.47;;;23.85;;
30539;SDS011;17321;46.312;4.776;2023-03-01T13:42:28;35.45;;;24.33;;
30539;SDS011;17321;46.312;4.776;2023-03-01T13:44:51;40.03;;;25.42;;
30539;SDS011;17321;46.312;4.776;2023-03-01T13:47:18;33.15;;;23.27;;
30539;SDS011;17321;46.312;4.776;2023-03-01T13:52:33;32.72;;;23.13;;
30539;SDS011;17321;46.312;4.776;2023-03-01T13:55:00;31.10;;;22.75;;
30539;SDS011;17321;46.312;4.776;2023-03-01T13:57:36;38.38;;;25.48;;
30539;SDS011;17321;46.312;4.776;2023-03-01T14:00:04;37.88;;;25.52;;
30539;SDS011;17321;46.312;4.776;2023-03-01T14:02:31;37.38;;;26.55;;
30539;SDS011;17321;46.312;4.776;2023-03-01T14:04:59;38.45;;;25.98;;
30539;SDS011;17321;46.312;4.776;2023-03-01T14:07:26;35.47;;;25.80;;
30539;SDS011;17321;46.312;4.776;2023-03-01T14:10:00;44.67;;;30.33;;
30539;SDS011;17321;46.312;4.776;2023-03-01T14:20:26;36.35;;;25.40;;
30539;SDS011;17321;46.312;4.776;2023-03-01T14:22:53;37.72;;;25.70;;
30539;SDS011;17321;46.312;4.776;2023-03-01T14:25:24;62.80;;;42.83;;
30539;SDS011;17321;46.312;4.776;2023-03-01T14:28:11;33.92;;;24.60;;
30539;SDS011;17321;46.312;4.776;2023-03-01T14:30:41;52.75;;;32.75;;
30539;SDS011;17321;46.312;4.776;2023-03-01T14:33:26;84.17;;;49.07;;
30539;SDS011;17321;46.312;4.776;2023-03-01T14:35:58;88.70;;;48.88;;
30539;SDS011;17321;46.312;4.776;2023-03-01T14:38:32;85.30;;;47.88;;
30539;SDS011;17321;46.312;4.776;2023-03-01T14:41:00;61.58;;;37.05;;
30539;SDS011;17321;46.312;4.776;2023-03-01T14:43:27;87.70;;;47.38;;
30539;SDS011;17321;46.312;4.776;2023-03-01T14:45:55;61.08;;;36.25;;
30539;SDS011;17321;46.312;4.776;2023-03-01T14:48:21;161.57;;;76.90;;
30539;SDS011;17321;46.312;4.776;2023-03-01T14:50:48;112.18;;;56.05;;
30539;SDS011;17321;46.312;4.776;2023-03-01T14:53:21;84.93;;;42.33;;
30539;SDS011;17321;46.312;4.776;2023-03-01T14:55:50;108.90;;;53.25;;
30539;SDS011;17321;46.312;4.776;2023-03-01T14:58:19;129.05;;;61.22;;
30539;SDS011;17321;46.312;4.776;2023-03-01T15:00:50;36.15;;;24.98;;
30539;SDS011;17321;46.312;4.776;2023-03-01T15:06:02;180.02;;;79.10;;
30539;SDS011;17321;46.312;4.776;2023-03-01T15:08:28;174.68;;;75.60;;
30539;SDS011;17321;46.312;4.776;2023-03-01T15:13:40;203.63;;;97.45;;
30539;SDS011;17321;46.312;4.776;2023-03-01T15:16:11;187.93;;;83.80;;
30539;SDS011;17321;46.312;4.776;2023-03-01T15:18:42;40.25;;;26.35;;
30539;SDS011;17321;46.312;4.776;2023-03-01T15:21:13;36.90;;;30.10;;
30539;SDS011;17321;46.312;4.776;2023-03-01T15:23:41;35.70;;;25.17;;
30539;SDS011;17321;46.312;4.776;2023-03-01T15:26:17;36.63;;;25.83;;
30539;SDS011;17321;46.312;4.776;2023-03-01T15:28:49;34.60;;;23.83;;
30539;SDS011;17321;46.312;4.776;2023-03-01T15:31:22;37.22;;;25.20;;
30539;SDS011;17321;46.312;4.776;2023-03-01T15:33:49;37.28;;;24.55;;
30539;SDS011;17321;46.312;4.776;2023-03-01T15:39:00;36.00;;;25.05;;
30539;SDS011;17321;46.312;4.776;2023-03-01T15:41:30;34.70;;;25.27;;
30539;SDS011;17321;46.312;4.776;2023-03-01T15:44:00;37.05;;;25.08;;
30539;SDS011;17321;46.312;4.776;2023-03-01T15:46:31;36.20;;;24.30;;
30539;SDS011;17321;46.312;4.776;2023-03-01T15:49:00;40.13;;;26.58;;
30539;SDS011;17321;46.312;4.776;2023-03-01T15:51:27;38.42;;;25.05;;
30539;SDS011;17321;46.312;4.776;2023-03-01T15:53:54;36.53;;;25.83;;
30539;SDS011;17321;46.312;4.776;2023-03-01T15:56:22;39.78;;;26.25;;
30539;SDS011;17321;46.312;4.776;2023-03-01T15:58:49;41.25;;;26.80;;
30539;SDS011;17321;46.312;4.776;2023-03-01T16:01:15;37.10;;;25.73;;
30539;SDS011;17321;46.312;4.776;2023-03-01T16:03:42;36.15;;;25.40;;
30539;SDS011;17321;46.312;4.776;2023-03-01T16:06:12;34.70;;;24.02;;
30539;SDS011;17321;46.312;4.776;2023-03-01T16:08:38;39.72;;;25.73;;
30539;SDS011;17321;46.312;4.776;2023-03-01T16:11:05;35.53;;;25.98;;
30539;SDS011;17321;46.312;4.776;2023-03-01T16:13:34;36.85;;;26.08;;
30539;SDS011;17321;46.312;4.776;2023-03-01T16:16:01;37.67;;;26.25;;
30539;SDS011;17321;46.312;4.776;2023-03-01T16:18:27;39.85;;;26.80;;